Time;durP1;ratioP1;P1;durP2;ratioP2;P2;SDS_P1;SDS_P2;PMS_P1;PMS_P2;Temp;Humidity;BMP_temperature;BMP_pressure;BME280_temperature;BME280_humidity;BME280_pressure;Samples;Min_cycle;Max_cycle;Signal;HPM_P1;HPM_P2
2022/01/13 00:01:11;;;;;;;31.25;8.43;;;5.20;99.90;;;;;;4995455;28;20057;-60
2022/01/13 00:03:36;;;;;;;32.58;10.43;;;5.10;99.90;;;;;;5015766;28;20038;-60
2022/01/13 00:06:02;;;;;;;42.83;10.63;;;5.10;99.90;;;;;;5021706;28;20102;-60
2022/01/13 00:08:28;;;;;;;27.90;9.32;;;5.10;99.90;;;;;;5014810;28;20049;-61
2022/01/13 00:10:53;;;;;;;51.40;11.50;;;5.10;99.90;;;;;;5017473;28;20382;-61
2022/01/13 00:13:25;;;;;;;33.75;10.25;;;5.10;99.90;;;;;;5014562;28;20046;-60
2022/01/13 00:16:24;;;;;;;25.67;9.20;;;5.10;99.90;;;;;;5019012;28;20053;-61
2022/01/13 00:18:49;;;;;;;17.35;9.02;;;5.20;99.90;;;;;;5012992;28;20044;-61
2022/01/13 00:23:50;;;;;;;72.05;12.70;;;5.20;99.90;;;;;;5019448;28;20050;-61
2022/01/13 00:26:25;;;;;;;35.15;9.63;;;5.20;99.90;;;;;;5012303;28;20041;-61
2022/01/13 00:28:52;;;;;;;42.05;11.65;;;5.20;99.90;;;;;;5015638;28;20744;-60
2022/01/13 00:31:25;;;;;;;23.70;10.57;;;5.20;99.90;;;;;;5024254;28;20072;-61
2022/01/13 00:33:54;;;;;;;67.57;11.50;;;5.20;99.90;;;;;;5011351;28;20041;-60
2022/01/13 00:36:21;;;;;;;57.50;10.57;;;5.20;99.90;;;;;;5024533;28;20096;-61
2022/01/13 00:38:47;;;;;;;59.92;10.95;;;5.20;99.90;;;;;;5029414;28;20378;-61
2022/01/13 00:41:12;;;;;;;41.95;10.30;;;5.30;99.90;;;;;;5016799;28;20068;-60
2022/01/13 00:43:40;;;;;;;58.00;12.38;;;5.20;99.90;;;;;;5020837;28;20038;-60
2022/01/13 00:46:06;;;;;;;28.95;10.55;;;5.30;99.90;;;;;;5008438;28;20052;-60
2022/01/13 00:48:32;;;;;;;25.48;11.95;;;5.30;99.90;;;;;;5022755;28;20073;-60
2022/01/13 00:50:58;;;;;;;23.15;12.07;;;5.30;99.90;;;;;;5031490;28;20516;-60
2022/01/13 00:53:24;;;;;;;31.30;12.13;;;5.30;99.90;;;;;;5015218;28;20057;-60
2022/01/13 00:55:58;;;;;;;29.92;12.05;;;5.40;99.90;;;;;;5020869;28;20041;-61
2022/01/13 00:58:26;;;;;;;31.25;11.55;;;5.40;99.90;;;;;;5017152;28;20177;-60
2022/01/13 01:00:52;;;;;;;23.42;10.48;;;5.40;99.90;;;;;;5014807;28;20152;-61
2022/01/13 01:03:18;;;;;;;20.25;11.65;;;5.40;99.90;;;;;;5013131;28;20121;-60
2022/01/13 01:05:43;;;;;;;25.27;12.23;;;5.50;99.90;;;;;;5016003;28;20478;-60
2022/01/13 01:08:10;;;;;;;23.63;11.57;;;5.50;99.90;;;;;;5015851;28;20510;-60
2022/01/13 01:10:36;;;;;;;26.75;12.23;;;5.50;99.90;;;;;;5024157;28;20745;-60
2022/01/13 01:13:10;;;;;;;23.05;12.32;;;5.50;99.90;;;;;;5012311;28;20038;-60
2022/01/13 01:15:37;;;;;;;28.27;12.90;;;5.50;99.90;;;;;;5014308;28;20057;-60
2022/01/13 01:18:12;;;;;;;28.05;13.15;;;5.50;99.90;;;;;;5012111;28;20061;-60
2022/01/13 01:20:48;;;;;;;26.00;12.57;;;5.50;99.90;;;;;;5022856;28;20037;-60
2022/01/13 01:23:18;;;;;;;26.10;12.13;;;5.50;99.90;;;;;;5030186;28;20130;-61
2022/01/13 01:25:57;;;;;;;28.15;12.55;;;5.50;99.90;;;;;;5014403;28;20091;-61
2022/01/13 01:28:28;;;;;;;23.75;12.18;;;5.50;99.90;;;;;;5030307;28;20432;-61
2022/01/13 01:30:55;;;;;;;34.33;14.40;;;5.50;99.90;;;;;;5012911;28;20060;-60
2022/01/13 01:33:21;;;;;;;31.15;12.38;;;5.50;99.90;;;;;;5014516;28;20049;-60
2022/01/13 01:35:48;;;;;;;38.72;12.13;;;5.50;99.90;;;;;;5023966;28;20037;-61
2022/01/13 01:38:14;;;;;;;56.67;11.52;;;5.50;99.90;;;;;;5025967;28;20049;-61
2022/01/13 01:40:40;;;;;;;42.13;11.30;;;5.40;99.90;;;;;;5030975;28;20508;-61
2022/01/13 01:43:05;;;;;;;38.00;11.05;;;5.40;99.90;;;;;;5017133;28;20131;-60
2022/01/13 01:45:34;;;;;;;51.85;11.57;;;5.40;99.90;;;;;;5020282;28;20045;-60
2022/01/13 01:48:03;;;;;;;60.72;13.30;;;5.40;99.90;;;;;;5021954;28;20161;-60
2022/01/13 01:50:35;;;;;;;56.95;12.32;;;5.30;99.90;;;;;;5019791;28;20045;-61
2022/01/13 01:53:01;;;;;;;45.45;13.77;;;5.30;99.90;;;;;;5028334;28;20474;-61
2022/01/13 01:55:26;;;;;;;71.22;11.18;;;5.30;99.90;;;;;;5019866;28;20037;-60
2022/01/13 01:57:52;;;;;;;110.25;11.52;;;5.20;99.90;;;;;;5015330;28;20077;-61
2022/01/13 02:00:21;;;;;;;113.78;12.65;;;5.10;99.90;;;;;;5018635;28;20038;-60
2022/01/13 02:02:47;;;;;;;201.20;16.15;;;5.10;99.90;;;;;;5005781;28;20080;-61
2022/01/13 02:05:12;;;;;;;80.38;12.15;;;5.00;99.90;;;;;;5001873;28;20081;-60
2022/01/13 02:07:38;;;;;;;113.40;12.38;;;4.90;99.90;;;;;;5023139;28;20045;-60
2022/01/13 02:10:06;;;;;;;76.32;10.00;;;4.90;99.90;;;;;;5018836;28;20806;-60
2022/01/13 02:12:39;;;;;;;90.60;11.57;;;4.80;99.90;;;;;;5013853;28;20428;-60
2022/01/13 02:17:38;;;;;;;56.50;10.75;;;4.80;99.90;;;;;;5026996;28;20481;-60
2022/01/13 02:20:05;;;;;;;62.20;10.25;;;4.80;99.90;;;;;;5012740;28;20068;-61
2022/01/13 02:22:31;;;;;;;83.13;11.60;;;4.70;99.90;;;;;;5026030;28;20429;-61
2022/01/13 02:24:56;;;;;;;60.22;10.85;;;4.80;99.90;;;;;;5024367;28;20096;-60
2022/01/13 02:27:22;;;;;;;71.40;10.43;;;4.70;99.90;;;;;;5023354;28;20049;-60
2022/01/13 02:29:48;;;;;;;90.72;13.30;;;4.80;99.90;;;;;;4999343;28;20457;-60
2022/01/13 02:32:15;;;;;;;96.20;12.52;;;4.70;99.90;;;;;;5016193;28;20473;-61
2022/01/13 02:34:41;;;;;;;75.75;11.75;;;4.80;99.90;;;;;;5004795;28;20096;-61
2022/01/13 02:37:07;;;;;;;68.13;11.18;;;4.80;99.90;;;;;;5018508;28;20263;-61
2022/01/13 02:39:33;;;;;;;42.35;12.35;;;4.80;99.90;;;;;;5016344;28;20120;-61
2022/01/13 02:42:00;;;;;;;62.40;12.50;;;4.80;99.90;;;;;;5016910;28;20125;-61
2022/01/13 02:44:25;;;;;;;65.95;11.13;;;4.80;99.90;;;;;;5017377;28;20045;-61
2022/01/13 02:49:21;;;;;;;55.00;11.57;;;4.70;99.90;;;;;;5014045;28;20104;-61
2022/01/13 02:51:49;;;;;;;54.08;11.23;;;4.70;99.90;;;;;;5021878;28;20095;-61
2022/01/13 02:54:15;;;;;;;61.42;11.27;;;4.70;99.90;;;;;;5005500;28;20045;-60
2022/01/13 02:56:42;;;;;;;64.88;11.40;;;4.70;99.90;;;;;;5020312;28;20076;-60
2022/01/13 02:59:08;;;;;;;92.63;13.60;;;4.70;99.90;;;;;;5026223;28;20051;-61
2022/01/13 03:01:34;;;;;;;123.50;16.15;;;4.70;99.90;;;;;;5024459;28;20604;-60
2022/01/13 03:04:04;;;;;;;109.07;12.93;;;4.70;99.90;;;;;;5010046;28;20400;-60
2022/01/13 03:06:37;;;;;;;68.78;13.25;;;4.70;99.90;;;;;;5019198;28;20057;-60
2022/01/13 03:09:05;;;;;;;111.13;13.90;;;4.80;99.90;;;;;;5027737;28;20037;-61
2022/01/13 03:11:34;;;;;;;108.47;13.25;;;4.70;99.90;;;;;;5025517;28;20049;-60
2022/01/13 03:14:00;;;;;;;54.30;11.27;;;4.80;99.90;;;;;;5013978;28;20049;-61
2022/01/13 03:16:26;;;;;;;111.80;12.75;;;4.80;99.90;;;;;;5020768;28;20072;-60
2022/01/13 03:18:51;;;;;;;116.75;12.57;;;4.70;99.90;;;;;;5011676;28;20705;-60
2022/01/13 03:21:17;;;;;;;101.85;12.07;;;4.80;99.90;;;;;;5019375;28;20535;-61
2022/01/13 03:23:43;;;;;;;97.72;12.88;;;4.80;99.90;;;;;;5025550;28;20065;-60
2022/01/13 03:26:09;;;;;;;110.80;12.20;;;4.80;99.90;;;;;;5011741;28;20045;-60
2022/01/13 03:28:39;;;;;;;111.85;13.80;;;4.80;99.90;;;;;;5021680;28;20061;-60
2022/01/13 03:31:06;;;;;;;75.85;11.38;;;4.80;99.90;;;;;;5026559;28;20049;-60
2022/01/13 03:33:32;;;;;;;91.75;13.20;;;4.80;99.90;;;;;;5009471;28;20052;-60
2022/01/13 03:35:59;;;;;;;147.40;14.65;;;4.80;99.90;;;;;;5014638;28;20037;-60
2022/01/13 03:38:26;;;;;;;98.45;14.45;;;4.80;99.90;;;;;;5025663;28;20056;-61
2022/01/13 03:40:52;;;;;;;85.53;13.20;;;4.80;99.90;;;;;;5023832;28;20088;-60
2022/01/13 03:43:18;;;;;;;107.53;14.13;;;4.80;99.90;;;;;;5018044;28;20046;-60
2022/01/13 03:45:45;;;;;;;161.93;16.85;;;4.80;99.90;;;;;;5005245;28;20527;-60
2022/01/13 03:48:13;;;;;;;101.82;14.45;;;4.80;99.90;;;;;;5014325;28;20038;-60
2022/01/13 03:50:40;;;;;;;138.35;14.35;;;4.80;99.90;;;;;;5026308;28;20068;-60
2022/01/13 03:53:27;;;;;;;108.00;14.07;;;4.80;99.90;;;;;;5027134;28;20041;-60
2022/01/13 03:56:08;;;;;;;114.22;14.18;;;4.80;99.90;;;;;;5016248;28;20401;-62
2022/01/13 03:59:26;;;;;;;92.28;14.32;;;4.80;99.90;;;;;;5013494;28;20149;-61
2022/01/13 04:02:12;;;;;;;140.25;16.13;;;4.80;99.90;;;;;;4957950;28;20047;-61
2022/01/13 04:04:41;;;;;;;100.57;14.00;;;4.80;99.90;;;;;;5009967;28;20069;-60
2022/01/13 04:07:10;;;;;;;112.57;13.45;;;4.80;99.90;;;;;;5011935;28;20042;-60
2022/01/13 04:09:35;;;;;;;68.28;13.45;;;4.90;99.90;;;;;;5022458;28;20053;-61
2022/01/13 04:12:04;;;;;;;86.07;13.23;;;4.90;99.90;;;;;;5016200;28;20045;-60
2022/01/13 04:17:07;;;;;;;102.32;12.98;;;4.90;99.90;;;;;;5009990;28;20343;-60
2022/01/13 04:19:32;;;;;;;93.90;13.63;;;4.90;99.90;;;;;;5019360;28;20093;-60
2022/01/13 04:21:58;;;;;;;84.18;12.75;;;4.90;99.90;;;;;;5019068;28;20047;-60
2022/01/13 04:24:24;;;;;;;117.05;14.75;;;4.90;99.90;;;;;;5016094;28;20115;-60
2022/01/13 04:26:50;;;;;;;83.43;13.02;;;4.90;99.90;;;;;;5026437;28;20386;-60
2022/01/13 04:29:20;;;;;;;131.68;14.65;;;4.90;99.90;;;;;;5013465;28;20402;-60
2022/01/13 04:31:48;;;;;;;125.80;17.75;;;4.90;99.90;;;;;;5018614;28;20045;-61
2022/01/13 04:34:15;;;;;;;65.55;13.40;;;4.90;99.90;;;;;;5017120;28;20056;-61
2022/01/13 04:36:41;;;;;;;104.47;14.60;;;4.90;99.90;;;;;;5016830;28;20091;-60
2022/01/13 04:39:08;;;;;;;85.00;14.60;;;4.90;99.90;;;;;;5009759;28;20045;-61
2022/01/13 04:41:36;;;;;;;165.13;19.42;;;4.90;99.90;;;;;;5017964;28;20042;-60
2022/01/13 04:44:11;;;;;;;139.38;17.95;;;4.90;99.90;;;;;;5009670;28;20046;-60
2022/01/13 04:46:37;;;;;;;73.75;14.77;;;5.00;99.90;;;;;;5022398;28;20052;-60
2022/01/13 04:49:04;;;;;;;73.93;15.10;;;5.00;99.90;;;;;;5021911;28;20050;-60
2022/01/13 04:51:30;;;;;;;98.28;14.75;;;5.00;99.90;;;;;;5017039;28;20042;-60
2022/01/13 04:53:55;;;;;;;95.40;15.90;;;5.00;99.90;;;;;;5016317;28;20599;-60
2022/01/13 04:57:21;;;;;;;101.88;16.35;;;5.00;99.90;;;;;;5006665;28;20038;-60
2022/01/13 04:59:16;;;;;;;86.85;15.35;;;5.10;99.90;;;;;;5004832;28;20059;-60
2022/01/13 05:01:41;;;;;;;139.95;17.98;;;5.10;99.90;;;;;;5015841;28;20124;-60
2022/01/13 05:04:08;;;;;;;95.43;16.42;;;5.10;99.90;;;;;;5009329;28;20045;-60
2022/01/13 05:06:34;;;;;;;79.28;18.23;;;5.10;99.90;;;;;;5022547;28;20055;-60
2022/01/13 05:09:00;;;;;;;88.82;16.83;;;5.20;99.90;;;;;;5026092;28;20029;-60
2022/01/13 05:11:26;;;;;;;56.55;18.95;;;5.20;99.90;;;;;;5021725;28;20093;-60
2022/01/13 05:13:51;;;;;;;83.78;18.75;;;5.20;99.90;;;;;;5021867;28;20425;-60
2022/01/13 05:16:34;;;;;;;66.63;18.38;;;5.20;99.90;;;;;;5001786;28;20060;-60
2022/01/13 05:24:09;;;;;;;85.88;20.95;;;5.40;99.90;;;;;;5021950;28;20045;-60
2022/01/13 05:26:34;;;;;;;48.70;20.13;;;5.40;99.90;;;;;;5009065;28;20548;-60
2022/01/13 05:29:00;;;;;;;54.15;20.42;;;5.40;99.90;;;;;;5018141;28;20107;-60
2022/01/13 05:31:26;;;;;;;59.95;19.58;;;5.50;99.90;;;;;;5020984;28;20073;-60
2022/01/13 05:33:51;;;;;;;50.90;20.33;;;5.50;99.90;;;;;;5030410;28;20174;-60
2022/01/13 05:36:18;;;;;;;45.47;22.95;;;5.60;99.90;;;;;;5029948;28;20508;-60
2022/01/13 05:38:43;;;;;;;54.33;23.23;;;5.60;99.90;;;;;;5029229;28;20049;-61
2022/01/13 05:41:10;;;;;;;52.13;21.95;;;5.60;99.90;;;;;;5015646;28;20052;-61
2022/01/13 05:43:36;;;;;;;54.30;22.30;;;5.60;99.90;;;;;;5016788;28;20044;-60
2022/01/13 05:46:02;;;;;;;50.75;21.33;;;5.70;99.90;;;;;;5002421;28;20063;-60
2022/01/13 05:48:28;;;;;;;56.05;22.42;;;5.70;99.90;;;;;;5023609;28;20045;-61
2022/01/13 05:50:53;;;;;;;48.65;20.98;;;5.80;99.90;;;;;;5029304;28;20036;-60
2022/01/13 05:53:19;;;;;;;68.57;23.13;;;5.80;99.90;;;;;;5022189;28;20061;-60
2022/01/13 05:55:44;;;;;;;41.58;19.92;;;5.80;99.90;;;;;;5025856;28;20041;-60
2022/01/13 05:58:10;;;;;;;46.38;22.05;;;5.80;99.90;;;;;;5027616;28;20114;-60
2022/01/13 06:00:36;;;;;;;55.05;22.60;;;5.80;99.90;;;;;;5018669;28;20034;-60
2022/01/13 06:03:02;;;;;;;43.30;20.75;;;5.90;99.90;;;;;;5022487;28;20126;-60
2022/01/13 06:05:28;;;;;;;45.38;21.67;;;5.90;99.90;;;;;;5018748;28;20523;-60
2022/01/13 06:07:53;;;;;;;44.00;19.45;;;6.00;99.90;;;;;;5022160;28;20050;-61
2022/01/13 06:10:20;;;;;;;50.55;21.90;;;6.00;99.90;;;;;;5023585;28;20037;-61
2022/01/13 06:12:47;;;;;;;50.40;21.63;;;6.00;99.90;;;;;;5020893;28;20049;-60
2022/01/13 06:15:15;;;;;;;48.65;20.45;;;6.10;99.90;;;;;;5012004;28;20540;-61
2022/01/13 06:17:42;;;;;;;50.03;21.35;;;6.10;99.90;;;;;;5017399;28;20504;-60
2022/01/13 06:20:10;;;;;;;37.55;18.52;;;6.10;99.90;;;;;;5024194;28;20045;-61
2022/01/13 06:22:36;;;;;;;45.75;20.13;;;6.10;99.90;;;;;;5023892;28;20528;-60
2022/01/13 06:25:04;;;;;;;45.13;19.38;;;6.10;99.90;;;;;;5017328;28;20049;-61
2022/01/13 06:27:29;;;;;;;44.28;21.10;;;6.20;99.90;;;;;;5029255;28;20096;-61
2022/01/13 06:29:55;;;;;;;44.75;20.73;;;6.20;99.90;;;;;;5022029;28;20049;-60
2022/01/13 06:32:21;;;;;;;62.42;23.83;;;6.20;99.90;;;;;;5018232;28;20908;-61
2022/01/13 06:34:48;;;;;;;51.17;22.30;;;6.20;99.90;;;;;;5007249;28;20486;-60
2022/01/13 06:37:14;;;;;;;38.88;19.02;;;6.20;99.90;;;;;;5028819;28;20090;-60
2022/01/13 06:39:40;;;;;;;44.63;20.67;;;6.20;99.90;;;;;;5027677;28;20132;-60
2022/01/13 06:42:06;;;;;;;42.60;21.40;;;6.20;99.90;;;;;;5023162;28;20045;-61
2022/01/13 06:44:32;;;;;;;47.47;21.33;;;6.20;99.90;;;;;;5027454;28;20056;-60
2022/01/13 06:46:58;;;;;;;61.72;23.73;;;6.30;99.90;;;;;;5022723;28;20645;-60
2022/01/13 06:49:23;;;;;;;47.88;22.20;;;6.30;99.90;;;;;;5011227;28;20050;-60
2022/01/13 06:51:49;;;;;;;48.00;23.60;;;6.30;99.90;;;;;;5018973;28;20129;-60
2022/01/13 06:54:14;;;;;;;44.33;23.67;;;6.40;99.90;;;;;;5022623;28;20068;-60
2022/01/13 06:56:40;;;;;;;69.00;24.95;;;6.40;99.90;;;;;;5022411;28;20041;-61
2022/01/13 06:59:10;;;;;;;52.45;22.83;;;6.50;99.90;;;;;;5007500;28;20053;-60
2022/01/13 07:01:37;;;;;;;51.13;22.92;;;6.50;99.90;;;;;;5024486;28;20053;-61
2022/01/13 07:04:03;;;;;;;45.67;22.48;;;6.50;99.90;;;;;;5018535;28;20077;-60
2022/01/13 07:06:28;;;;;;;58.50;23.70;;;6.50;99.90;;;;;;5021782;28;20586;-61
2022/01/13 07:08:54;;;;;;;53.30;25.40;;;6.60;99.90;;;;;;5024230;28;20103;-61
2022/01/13 07:11:19;;;;;;;51.17;22.92;;;6.60;99.90;;;;;;5026570;28;20049;-60
2022/01/13 07:13:45;;;;;;;60.38;24.58;;;6.60;99.90;;;;;;5018360;28;20456;-60
2022/01/13 07:16:11;;;;;;;59.15;23.90;;;6.60;99.90;;;;;;5025446;28;20485;-61
2022/01/13 07:18:39;;;;;;;61.28;24.80;;;6.70;99.90;;;;;;5026764;28;20037;-61
2022/01/13 07:21:09;;;;;;;54.25;24.73;;;6.60;99.90;;;;;;5018602;28;20565;-61
2022/01/13 07:23:35;;;;;;;51.78;25.40;;;6.70;99.90;;;;;;5015276;28;20071;-61
2022/01/13 07:26:02;;;;;;;58.78;25.67;;;6.70;99.90;;;;;;5028806;28;20050;-61
2022/01/13 07:28:29;;;;;;;59.15;27.95;;;6.70;99.90;;;;;;5023676;28;20106;-60
2022/01/13 07:30:55;;;;;;;65.88;28.40;;;6.70;99.90;;;;;;5017263;28;20053;-61
2022/01/13 07:33:21;;;;;;;61.75;27.05;;;6.80;99.90;;;;;;5021366;28;20037;-60
2022/01/13 07:35:47;;;;;;;58.25;27.42;;;6.80;99.90;;;;;;5025447;28;20525;-61
2022/01/13 07:38:12;;;;;;;69.20;31.27;;;6.80;99.90;;;;;;5026742;28;20037;-61
2022/01/13 07:40:38;;;;;;;55.92;28.90;;;6.90;99.90;;;;;;5023958;28;20046;-61
2022/01/13 07:43:03;;;;;;;59.42;26.70;;;6.90;99.90;;;;;;5023562;28;20053;-61
2022/01/13 07:45:29;;;;;;;70.95;28.92;;;6.90;99.90;;;;;;5025593;28;20037;-61
2022/01/13 07:47:54;;;;;;;73.80;30.70;;;6.90;99.90;;;;;;5022748;28;20048;-61
2022/01/13 07:50:20;;;;;;;58.55;28.20;;;6.90;99.90;;;;;;5020934;28;20542;-61
2022/01/13 07:52:45;;;;;;;66.90;30.15;;;6.90;99.90;;;;;;5019334;28;20056;-60
2022/01/13 07:55:11;;;;;;;79.93;30.40;;;6.90;99.90;;;;;;5024588;28;20060;-60
2022/01/13 07:57:37;;;;;;;76.20;32.35;;;7.00;99.90;;;;;;5015097;28;20053;-61
2022/01/13 08:00:05;;;;;;;64.18;28.23;;;7.00;99.90;;;;;;5026271;28;20040;-60
2022/01/13 08:02:30;;;;;;;67.53;29.88;;;7.00;99.90;;;;;;5028690;28;20049;-60
2022/01/13 08:04:56;;;;;;;66.43;30.92;;;7.00;99.90;;;;;;5014364;28;20540;-60
2022/01/13 08:07:21;;;;;;;64.75;27.90;;;7.00;99.90;;;;;;5023143;28;20053;-60
2022/01/13 08:09:47;;;;;;;69.55;29.15;;;7.00;99.90;;;;;;5028315;28;20049;-60
2022/01/13 08:12:12;;;;;;;72.80;33.13;;;7.00;99.90;;;;;;5017105;28;20049;-61
2022/01/13 08:14:39;;;;;;;70.82;31.17;;;7.00;99.90;;;;;;5014626;28;20626;-60
2022/01/13 08:17:07;;;;;;;82.47;35.28;;;7.00;99.90;;;;;;5012092;28;20053;-60
2022/01/13 08:19:48;;;;;;;71.38;30.38;;;7.00;99.90;;;;;;5016197;28;20178;-60
2022/01/13 08:22:16;;;;;;;49.95;26.58;;;7.00;99.90;;;;;;5012113;28;20765;-61
2022/01/13 08:24:43;;;;;;;85.40;32.63;;;7.00;99.90;;;;;;5020095;28;20042;-61
2022/01/13 08:27:08;;;;;;;67.80;30.95;;;7.00;99.90;;;;;;5024457;28;20095;-61
2022/01/13 08:29:34;;;;;;;60.60;29.25;;;7.00;99.90;;;;;;5013680;28;20128;-61
2022/01/13 08:32:00;;;;;;;68.28;28.50;;;7.00;99.90;;;;;;5016046;28;20687;-61
2022/01/13 08:34:26;;;;;;;71.93;30.88;;;7.00;99.90;;;;;;5019403;28;20037;-61
2022/01/13 08:36:52;;;;;;;58.67;28.02;;;7.00;99.90;;;;;;5016667;28;20041;-61
2022/01/13 08:39:17;;;;;;;70.75;31.02;;;7.00;99.90;;;;;;5019481;28;20054;-60
2022/01/13 08:41:43;;;;;;;73.05;31.30;;;7.10;99.90;;;;;;5015214;28;20132;-61
2022/01/13 08:44:09;;;;;;;73.20;29.20;;;7.00;99.90;;;;;;5015921;28;20034;-61
2022/01/13 08:46:35;;;;;;;64.07;29.40;;;7.10;99.90;;;;;;5002858;28;20136;-61
2022/01/13 08:49:02;;;;;;;79.13;32.47;;;7.10;99.90;;;;;;5008627;28;20172;-61
2022/01/13 08:51:27;;;;;;;72.25;29.15;;;7.10;99.90;;;;;;5003535;28;20485;-61
2022/01/13 08:53:53;;;;;;;53.95;28.30;;;7.10;99.90;;;;;;5017612;28;20048;-61
2022/01/13 08:56:19;;;;;;;70.40;29.65;;;7.10;99.90;;;;;;5019955;28;20128;-61
2022/01/13 08:58:46;;;;;;;63.95;28.05;;;7.10;99.90;;;;;;5031844;28;20529;-61
2022/01/13 09:01:12;;;;;;;65.78;28.30;;;7.10;99.90;;;;;;5020336;28;20053;-61
2022/01/13 09:03:38;;;;;;;64.63;29.95;;;7.10;99.90;;;;;;5022647;28;20047;-61
2022/01/13 09:06:03;;;;;;;66.70;26.83;;;7.10;99.90;;;;;;5029242;28;20390;-61
2022/01/13 09:08:29;;;;;;;63.97;28.65;;;7.20;99.90;;;;;;5019858;28;20037;-61
2022/01/13 09:10:55;;;;;;;54.50;27.60;;;7.20;99.90;;;;;;5030231;28;20044;-61
2022/01/13 09:13:21;;;;;;;58.28;27.40;;;7.20;99.90;;;;;;5021879;28;20183;-61
2022/01/13 09:15:58;;;;;;;55.40;28.10;;;7.20;99.90;;;;;;5026262;28;20038;-61
2022/01/13 09:21:08;;;;;;;51.20;28.08;;;7.20;99.90;;;;;;5030348;28;20053;-61
2022/01/13 09:23:36;;;;;;;56.17;29.08;;;7.30;99.90;;;;;;5025609;28;20502;-61
2022/01/13 09:26:02;;;;;;;62.05;27.38;;;7.30;99.90;;;;;;5021215;28;20053;-61
2022/01/13 09:28:28;;;;;;;56.38;28.63;;;7.30;99.90;;;;;;5029422;28;20424;-61
2022/01/13 09:30:54;;;;;;;48.60;26.00;;;7.30;99.90;;;;;;5014571;28;20045;-61
2022/01/13 09:33:21;;;;;;;63.40;29.25;;;7.40;99.90;;;;;;5015048;28;20641;-61
2022/01/13 09:35:47;;;;;;;60.63;28.23;;;7.40;99.90;;;;;;5017540;28;20077;-61
2022/01/13 09:38:13;;;;;;;68.22;27.88;;;7.40;99.90;;;;;;5011417;28;20085;-61
2022/01/13 09:40:45;;;;;;;59.30;27.90;;;7.40;99.90;;;;;;5017943;28;20060;-62
2022/01/13 09:43:11;;;;;;;54.40;29.27;;;7.40;99.90;;;;;;5016943;28;20081;-61
2022/01/13 09:45:38;;;;;;;59.10;29.23;;;7.40;99.90;;;;;;5026348;28;20544;-61
2022/01/13 09:48:03;;;;;;;65.13;28.27;;;7.40;99.90;;;;;;5014634;28;20460;-61
2022/01/13 09:50:29;;;;;;;59.15;27.40;;;7.50;99.90;;;;;;5022239;28;20042;-61
2022/01/13 09:52:55;;;;;;;64.88;30.20;;;7.50;99.90;;;;;;5022827;28;20045;-61
2022/01/13 09:55:21;;;;;;;64.30;29.67;;;7.50;99.90;;;;;;5018804;28;20037;-61
2022/01/13 09:57:50;;;;;;;54.25;28.30;;;7.50;99.90;;;;;;5027228;28;20053;-61
2022/01/13 10:00:24;;;;;;;60.03;29.55;;;7.50;99.90;;;;;;5021688;28;20041;-61
2022/01/13 10:02:50;;;;;;;59.92;27.00;;;7.50;99.90;;;;;;5020613;28;20041;-61
2022/01/13 10:05:17;;;;;;;50.88;24.88;;;7.50;99.90;;;;;;5019646;28;20596;-61
2022/01/13 10:07:46;;;;;;;44.80;24.80;;;7.50;99.90;;;;;;5020258;28;20057;-60
2022/01/13 10:10:14;;;;;;;58.20;27.77;;;7.50;99.90;;;;;;5026800;28;20166;-61
2022/01/13 10:12:43;;;;;;;68.88;30.33;;;7.50;99.90;;;;;;5021357;28;20041;-61
2022/01/13 10:18:03;;;;;;;55.05;28.67;;;7.40;99.90;;;;;;5016881;28;20048;-61
2022/01/13 10:20:30;;;;;;;62.70;28.65;;;7.40;99.90;;;;;;5017067;28;20535;-61
2022/01/13 10:23:09;;;;;;;66.13;29.52;;;7.40;99.90;;;;;;5029659;28;20049;-61
2022/01/13 10:25:37;;;;;;;60.55;27.73;;;7.40;99.90;;;;;;5029526;28;20037;-61
2022/01/13 10:28:23;;;;;;;67.05;30.60;;;7.40;99.90;;;;;;5029936;28;20049;-61
2022/01/13 10:30:53;;;;;;;62.30;28.45;;;7.40;99.90;;;;;;5029517;28;20133;-61
2022/01/13 10:33:19;;;;;;;58.92;28.75;;;7.40;99.90;;;;;;5048150;28;20037;-61
2022/01/13 10:35:46;;;;;;;69.13;30.60;;;7.40;99.90;;;;;;5025896;28;20449;-61
2022/01/13 10:38:16;;;;;;;65.43;29.13;;;7.40;99.90;;;;;;5028073;28;20040;-61
2022/01/13 10:40:49;;;;;;;54.88;29.23;;;7.40;99.90;;;;;;5018115;28;20405;-61
2022/01/13 10:43:20;;;;;;;58.65;28.60;;;7.40;99.90;;;;;;5026108;28;20796;-61
2022/01/13 10:45:56;;;;;;;59.97;30.48;;;7.40;99.90;;;;;;5030033;28;20042;-62
2022/01/13 10:48:24;;;;;;;68.25;31.50;;;7.40;99.90;;;;;;5016265;28;20072;-61
2022/01/13 10:50:54;;;;;;;58.72;30.08;;;7.40;99.90;;;;;;5040040;28;20040;-61
2022/01/13 10:53:25;;;;;;;59.55;30.23;;;7.40;99.90;;;;;;5023727;28;20393;-61
2022/01/13 10:55:54;;;;;;;54.25;30.40;;;7.40;99.90;;;;;;5029657;28;20056;-61
2022/01/13 10:58:50;;;;;;;51.03;28.45;;;7.40;99.90;;;;;;5022073;28;20081;-61
2022/01/13 11:01:16;;;;;;;65.30;27.67;;;7.40;99.90;;;;;;5028497;28;20540;-61
2022/01/13 11:03:44;;;;;;;51.80;28.52;;;7.40;99.90;;;;;;5046401;28;20132;-61
2022/01/13 11:06:11;;;;;;;53.95;29.17;;;7.40;99.90;;;;;;5018976;28;20042;-61
2022/01/13 11:08:43;;;;;;;58.42;31.02;;;7.40;99.90;;;;;;5021528;28;20042;-61
2022/01/13 11:11:24;;;;;;;67.82;29.48;;;7.40;99.90;;;;;;5047202;28;20048;-62
2022/01/13 11:14:00;;;;;;;51.58;27.70;;;7.40;99.90;;;;;;5029244;28;20084;-61
2022/01/13 11:16:26;;;;;;;64.63;29.92;;;7.50;99.90;;;;;;5028011;28;20559;-61
2022/01/13 11:18:52;;;;;;;54.00;26.92;;;7.50;99.90;;;;;;5015776;28;20128;-61
2022/01/13 11:21:18;;;;;;;53.78;27.70;;;7.60;99.90;;;;;;5021570;28;20133;-61
2022/01/13 11:23:50;;;;;;;61.60;29.15;;;7.60;99.90;;;;;;5020786;28;20757;-61
2022/01/13 11:26:17;;;;;;;55.60;28.02;;;7.60;99.90;;;;;;5027625;28;20045;-61
2022/01/13 11:28:43;;;;;;;51.17;26.58;;;7.70;99.90;;;;;;5029201;28;20096;-61
2022/01/13 11:31:10;;;;;;;57.90;27.55;;;7.70;99.90;;;;;;5008289;28;20065;-61
2022/01/13 11:33:38;;;;;;;64.60;27.83;;;7.80;99.90;;;;;;5023094;28;20064;-61
2022/01/13 11:36:06;;;;;;;61.13;27.27;;;7.80;99.90;;;;;;5009536;28;20056;-61
2022/01/13 11:38:33;;;;;;;57.85;28.58;;;7.80;99.90;;;;;;5028606;28;20045;-61
2022/01/13 11:41:04;;;;;;;47.55;24.33;;;7.80;99.90;;;;;;5028340;28;20041;-61
2022/01/13 11:43:41;;;;;;;41.65;22.25;;;7.90;99.90;;;;;;5016078;28;20073;-61
2022/01/13 11:46:21;;;;;;;63.05;25.05;;;7.90;99.90;;;;;;5023204;28;20080;-61
2022/01/13 11:49:15;;;;;;;52.40;22.65;;;8.00;99.90;;;;;;5020329;28;20045;-61
2022/01/13 11:51:55;;;;;;;57.00;22.38;;;8.10;99.90;;;;;;5010138;28;20290;-61
2022/01/13 11:54:27;;;;;;;45.92;19.05;;;8.10;99.90;;;;;;5013380;28;20038;-61
2022/01/13 11:57:29;;;;;;;41.08;20.17;;;8.20;99.90;;;;;;5027847;28;20075;-61
2022/01/13 11:59:58;;;;;;;47.70;19.13;;;8.20;99.90;;;;;;5020754;28;20145;-61
2022/01/13 12:02:31;;;;;;;39.05;18.45;;;8.40;99.90;;;;;;5014704;28;20058;-61
2022/01/13 12:05:06;;;;;;;43.65;20.63;;;8.60;99.90;;;;;;5007470;28;20141;-61
2022/01/13 12:07:44;;;;;;;34.53;17.83;;;8.70;99.90;;;;;;5000603;28;20161;-61
2022/01/13 12:10:31;;;;;;;41.03;17.83;;;8.90;99.90;;;;;;5027473;28;20049;-61
2022/01/13 12:12:57;;;;;;;42.97;19.02;;;9.00;99.90;;;;;;5016383;28;20132;-61
2022/01/13 12:15:25;;;;;;;41.63;18.67;;;9.20;99.90;;;;;;5006658;28;20133;-61
2022/01/13 12:18:01;;;;;;;35.92;17.17;;;9.30;99.90;;;;;;5016738;28;20052;-61
2022/01/13 12:20:39;;;;;;;30.17;16.98;;;9.20;99.90;;;;;;5014651;28;20497;-61
2022/01/13 12:23:16;;;;;;;33.28;16.10;;;9.20;99.90;;;;;;5023615;28;20037;-61
2022/01/13 12:25:43;;;;;;;28.83;17.08;;;9.10;99.90;;;;;;5027231;28;20053;-61
2022/01/13 12:28:14;;;;;;;40.55;17.05;;;9.10;99.90;;;;;;5017248;28;20045;-61
2022/01/13 12:30:40;;;;;;;45.35;19.58;;;9.00;99.90;;;;;;5028576;28;20116;-61
2022/01/13 12:33:07;;;;;;;41.03;18.23;;;9.00;99.90;;;;;;5024667;28;20060;-61
2022/01/13 12:35:39;;;;;;;49.20;18.58;;;8.90;99.90;;;;;;5025707;28;20037;-61
2022/01/13 12:38:27;;;;;;;32.28;16.42;;;8.90;99.90;;;;;;5019295;28;20064;-61
2022/01/13 12:41:05;;;;;;;35.10;16.63;;;8.90;99.90;;;;;;5029373;28;20046;-61
2022/01/13 12:43:37;;;;;;;42.15;18.55;;;8.80;99.90;;;;;;5021851;28;20994;-61
2022/01/13 12:46:26;;;;;;;44.23;17.67;;;8.80;99.90;;;;;;5026269;28;20041;-61
2022/01/13 12:48:54;;;;;;;41.88;17.70;;;8.80;99.90;;;;;;5019560;28;20512;-62
2022/01/13 12:51:22;;;;;;;34.22;16.92;;;8.80;99.90;;;;;;5031959;28;20447;-61
2022/01/13 12:53:49;;;;;;;35.40;16.65;;;8.80;99.90;;;;;;5025814;28;20045;-61
2022/01/13 12:56:16;;;;;;;42.70;17.25;;;8.80;99.90;;;;;;5013996;28;20053;-61
2022/01/13 12:58:50;;;;;;;43.25;17.95;;;8.70;99.90;;;;;;5026462;28;20045;-62
2022/01/13 13:01:19;;;;;;;57.10;18.85;;;8.80;99.90;;;;;;5022315;28;20057;-61
2022/01/13 13:04:12;;;;;;;26.75;16.02;;;8.80;99.90;;;;;;5028062;28;20389;-61